Time;durP1;ratioP1;P1;durP2;ratioP2;P2;SDS_P1;SDS_P2;PMS_P1;PMS_P2;Temp;Humidity;BMP_temperature;BMP_pressure;BME280_temperature;BME280_humidity;BME280_pressure;Samples;Min_cycle;Max_cycle;Signal;HPM_P1;HPM_P2
2023/12/23 00:01:17;;;;;;;12.07;7.47;;;;;;;13.72;100.00;99351.69;5093080;28;20020;-49
2023/12/23 00:03:43;;;;;;;16.88;14.63;;;;;;;13.58;100.00;99347.41;5094426;28;20027;-49
2023/12/23 00:06:09;;;;;;;14.93;7.43;;;;;;;13.52;100.00;99345.59;5094343;28;20061;-49
2023/12/23 00:08:35;;;;;;;9.48;5.90;;;;;;;13.36;100.00;99347.63;5092175;28;20405;-49
2023/12/23 00:11:01;;;;;;;10.88;6.55;;;;;;;13.19;100.00;99343.72;5094275;28;20276;-49
2023/12/23 00:13:26;;;;;;;12.73;7.60;;;;;;;13.16;100.00;99344.94;5094264;28;20020;-49
2023/12/23 00:15:52;;;;;;;15.13;9.07;;;;;;;12.98;100.00;99350.00;5092823;28;20510;-49
2023/12/23 00:18:18;;;;;;;11.82;6.55;;;;;;;13.13;100.00;99355.06;5092744;28;20054;-49
2023/12/23 00:20:43;;;;;;;10.27;8.25;;;;;;;13.23;100.00;99355.50;5092721;28;20024;-49
2023/12/23 00:23:11;;;;;;;10.63;5.90;;;;;;;13.43;100.00;99354.75;5092471;28;20044;-49
2023/12/23 00:25:36;;;;;;;10.35;5.22;;;;;;;13.35;100.00;99364.47;5092677;28;20387;-49
2023/12/23 00:28:03;;;;;;;10.63;4.95;;;;;;;13.23;100.00;99363.41;5092626;28;20089;-49
2023/12/23 00:30:28;;;;;;;9.93;4.10;;;;;;;12.94;100.00;99364.56;5092504;28;20032;-49
2023/12/23 00:32:54;;;;;;;9.60;6.75;;;;;;;12.69;100.00;99364.28;5092563;28;20028;-49
2023/12/23 00:35:20;;;;;;;13.23;4.13;;;;;;;12.51;100.00;99365.63;5094063;28;20097;-49
2023/12/23 00:37:46;;;;;;;9.27;6.82;;;;;;;12.31;100.00;99362.88;5093679;28;20031;-49
2023/12/23 00:40:12;;;;;;;10.63;6.57;;;;;;;12.15;100.00;99363.19;5093710;28;20020;-49
2023/12/23 00:42:37;;;;;;;29.13;22.15;;;;;;;11.94;100.00;99364.09;5093597;28;20028;-49
2023/12/23 00:45:04;;;;;;;12.57;7.95;;;;;;;11.93;100.00;99347.50;5092231;28;20035;-49
2023/12/23 00:47:30;;;;;;;19.50;16.08;;;;;;;11.80;100.00;99353.44;5092237;28;20114;-49
2023/12/23 00:49:55;;;;;;;33.63;18.70;;;;;;;11.70;100.00;99350.34;5093809;28;20108;-49
2023/12/23 00:52:21;;;;;;;17.70;7.90;;;;;;;11.87;100.00;99352.69;5092111;28;20089;-50
2023/12/23 00:54:46;;;;;;;14.55;9.38;;;;;;;11.93;100.00;99359.81;5092131;28;20058;-49
2023/12/23 00:57:12;;;;;;;13.98;6.88;;;;;;;11.88;100.00;99352.50;5093254;28;20516;-49
2023/12/23 00:59:38;;;;;;;11.30;6.30;;;;;;;11.78;100.00;99370.44;5093318;28;20024;-49
2023/12/23 01:02:04;;;;;;;17.10;5.38;;;;;;;11.60;100.00;99368.25;5093334;28;20107;-49
2023/12/23 01:04:29;;;;;;;10.27;4.90;;;;;;;11.44;100.00;99371.97;5091935;28;20049;-50
2023/12/23 01:06:55;;;;;;;12.40;4.70;;;;;;;11.51;100.00;99375.47;5091925;28;20428;-49
2023/12/23 01:09:21;;;;;;;12.65;4.40;;;;;;;11.66;100.00;99380.66;5093212;28;20055;-49
2023/12/23 01:11:46;;;;;;;15.30;7.03;;;;;;;11.69;100.00;99377.66;5092032;28;20027;-49
2023/12/23 01:14:12;;;;;;;13.93;5.75;;;;;;;11.55;100.00;99371.47;5091833;28;20028;-49
2023/12/23 01:16:38;;;;;;;11.73;4.43;;;;;;;11.49;100.00;99387.16;5093067;28;20058;-49
2023/12/23 01:19:03;;;;;;;11.15;4.45;;;;;;;11.61;100.00;99383.06;5091006;28;20481;-49
2023/12/23 01:21:29;;;;;;;10.65;4.57;;;;;;;11.71;100.00;99385.31;5092494;28;20019;-48
2023/12/23 01:23:56;;;;;;;31.35;26.38;;;;;;;11.78;100.00;99376.50;5092730;28;20409;-49
2023/12/23 01:26:21;;;;;;;17.92;7.03;;;;;;;11.84;100.00;99385.44;5091493;28;20085;-49
2023/12/23 01:28:47;;;;;;;9.82;4.05;;;;;;;11.77;100.00;99393.28;5091788;28;20028;-49
2023/12/23 01:31:13;;;;;;;11.70;4.40;;;;;;;11.77;100.00;99393.28;5092727;28;20020;-49
2023/12/23 01:33:39;;;;;;;11.60;3.67;;;;;;;11.82;100.00;99397.16;5092628;28;20059;-49
2023/12/23 01:36:05;;;;;;;53.45;46.10;;;;;;;11.71;100.00;99406.34;5091438;28;20032;-49
2023/12/23 01:38:34;;;;;;;13.48;4.57;;;;;;;11.86;100.00;99408.94;5091180;28;20111;-49
2023/12/23 01:41:00;;;;;;;15.85;4.03;;;;;;;12.12;100.00;99405.69;5091220;28;20111;-49
2023/12/23 01:43:26;;;;;;;10.35;3.42;;;;;;;12.12;100.00;99405.69;5092503;28;20095;-49
2023/12/23 01:45:58;;;;;;;9.38;3.10;;;;;;;12.03;100.00;99405.00;5091186;28;20418;-49
2023/12/23 01:48:25;;;;;;;13.70;3.55;;;;;;;11.83;100.00;99406.66;5091154;28;20056;-49
2023/12/23 01:50:53;;;;;;;16.38;4.90;;;;;;;11.78;100.00;99397.53;5092413;28;20028;-49
2023/12/23 01:53:20;;;;;;;11.55;3.45;;;;;;;12.03;100.00;99391.88;5091122;28;20062;-49
2023/12/23 01:55:46;;;;;;;10.43;3.78;;;;;;;11.92;100.00;99387.16;5092297;28;20027;-49
2023/12/23 01:58:12;;;;;;;8.20;3.20;;;;;;;11.95;100.00;99389.38;5092191;28;20036;-49
2023/12/23 02:00:37;;;;;;;8.18;2.88;;;;;;;12.05;100.00;99387.22;5090867;28;20516;-49
2023/12/23 02:03:03;;;;;;;7.80;2.88;;;;;;;12.01;100.00;99401.75;5092213;28;20107;-49
2023/12/23 02:05:29;;;;;;;13.13;10.18;;;;;;;12.10;100.00;99405.09;5092153;28;20035;-49
2023/12/23 02:07:55;;;;;;;13.10;3.55;;;;;;;11.94;100.00;99408.81;5092135;28;20117;-49
2023/12/23 02:10:21;;;;;;;13.63;4.50;;;;;;;11.90;100.00;99407.56;5090723;28;20039;-49
2023/12/23 02:13:11;;;;;;;9.75;3.58;;;;;;;12.18;100.00;99407.56;5092104;28;20020;-49
2023/12/23 02:15:37;;;;;;;10.57;3.10;;;;;;;12.20;100.00;99405.56;5092088;28;20035;-49
2023/12/23 02:18:03;;;;;;;7.53;2.72;;;;;;;12.03;100.00;99405.00;5091940;28;20026;-50
2023/12/23 02:20:29;;;;;;;14.98;6.45;;;;;;;12.08;100.00;99410.53;5091848;28;20103;-50
2023/12/23 02:22:55;;;;;;;14.48;6.50;;;;;;;12.26;100.00;99398.72;5090393;28;20452;-50
2023/12/23 02:25:22;;;;;;;13.30;4.70;;;;;;;12.21;100.00;99406.34;5091911;28;20020;-49
2023/12/23 02:27:53;;;;;;;29.15;25.95;;;;;;;12.22;100.00;99408.00;5091875;28;20457;-49
2023/12/23 02:30:20;;;;;;;9.65;6.90;;;;;;;12.12;100.00;99405.69;5090567;28;20036;-49
2023/12/23 02:32:46;;;;;;;23.88;20.17;;;;;;;12.06;100.00;99401.22;5091666;28;20482;-49
2023/12/23 02:35:12;;;;;;;13.20;7.47;;;;;;;12.21;100.00;99401.91;5091815;28;20031;-50
2023/12/23 02:37:38;;;;;;;24.50;13.77;;;;;;;12.13;100.00;99415.22;5090729;28;20026;-49
2023/12/23 02:40:04;;;;;;;13.00;6.78;;;;;;;11.82;100.00;99408.50;5090451;28;20028;-49
2023/12/23 02:42:30;;;;;;;12.30;5.53;;;;;;;11.57;100.00;99413.34;5091753;28;20054;-49
2023/12/23 02:44:55;;;;;;;11.40;3.45;;;;;;;11.38;100.00;99418.19;5090427;28;20035;-49
2023/12/23 02:47:21;;;;;;;15.48;5.00;;;;;;;11.15;100.00;99417.59;5091679;28;20107;-50
2023/12/23 02:49:47;;;;;;;12.57;3.70;;;;;;;11.08;100.00;99421.94;5091733;28;20103;-49
2023/12/23 02:52:12;;;;;;;11.48;3.90;;;;;;;11.07;100.00;99429.00;5091925;28;20020;-49
2023/12/23 02:54:38;;;;;;;11.77;4.30;;;;;;;11.00;100.00;99418.41;5090352;28;20532;-49
2023/12/23 02:57:04;;;;;;;13.75;3.58;;;;;;;10.86;100.00;99419.25;5091596;28;20059;-49
2023/12/23 02:59:29;;;;;;;9.75;3.10;;;;;;;10.90;100.00;99415.25;5091589;28;20020;-49
2023/12/23 03:01:55;;;;;;;10.88;3.25;;;;;;;11.11;100.00;99418.94;5090272;28;20081;-49
2023/12/23 03:04:21;;;;;;;12.43;4.97;;;;;;;11.24;100.00;99415.66;5091595;28;20458;-49
2023/12/23 03:06:46;;;;;;;9.45;4.10;;;;;;;11.68;100.00;99418.06;5090195;28;20574;-49
2023/12/23 03:09:12;;;;;;;10.40;5.13;;;;;;;11.98;100.00;99425.84;5091574;28;20047;-49
2023/12/23 03:11:38;;;;;;;13.80;4.13;;;;;;;11.88;100.00;99422.69;5091490;28;20021;-49
2023/12/23 03:14:05;;;;;;;9.50;3.63;;;;;;;12.12;100.00;99430.19;5090179;28;20050;-49
2023/12/23 03:16:35;;;;;;;11.40;4.15;;;;;;;12.54;100.00;99423.16;5091401;28;20440;-49
2023/12/23 03:19:02;;;;;;;9.95;3.83;;;;;;;12.75;100.00;99421.44;5091657;28;20050;-50
2023/12/23 03:21:29;;;;;;;11.27;3.90;;;;;;;12.79;100.00;99425.28;5091427;28;20051;-49
2023/12/23 03:23:54;;;;;;;10.13;4.13;;;;;;;12.69;100.00;99424.84;5091211;28;20101;-49
2023/12/23 03:26:20;;;;;;;12.10;4.68;;;;;;;12.63;100.00;99426.44;5091274;28;20494;-49
2023/12/23 03:28:46;;;;;;;11.43;4.43;;;;;;;12.48;100.00;99420.50;5091345;28;20099;-49
2023/12/23 03:31:11;;;;;;;10.02;5.55;;;;;;;12.08;100.00;99418.41;5091229;28;20020;-49
2023/12/23 03:33:37;;;;;;;8.73;4.72;;;;;;;11.80;100.00;99421.81;5091267;28;20017;-49
2023/12/23 03:36:03;;;;;;;11.65;4.28;;;;;;;11.64;100.00;99421.28;5073481;28;20028;-49
2023/12/23 03:38:29;;;;;;;10.32;4.63;;;;;;;11.46;100.00;99425.16;5091126;28;20031;-49
2023/12/23 03:40:54;;;;;;;12.65;5.25;;;;;;;11.82;100.00;99432.16;5091208;28;20016;-49
2023/12/23 03:43:20;;;;;;;8.27;4.45;;;;;;;11.82;100.00;99420.84;5092471;28;20024;-50
2023/12/23 03:45:45;;;;;;;9.73;4.32;;;;;;;11.40;100.00;99416.19;5094744;28;20461;-50
2023/12/23 03:48:11;;;;;;;18.73;7.95;;;;;;;10.95;100.00;99423.41;5094782;28;20081;-49
2023/12/23 03:50:37;;;;;;;14.38;8.00;;;;;;;10.68;100.00;99424.91;5094692;28;20056;-50
2023/12/23 03:53:02;;;;;;;14.13;5.80;;;;;;;10.39;100.00;99426.53;5094666;28;20024;-49
2023/12/23 03:55:32;;;;;;;14.05;5.88;;;;;;;10.36;100.00;99420.81;5093272;28;20035;-49
2023/12/23 03:58:02;;;;;;;13.00;5.35;;;;;;;10.13;100.00;99419.06;5093167;28;20115;-49
2023/12/23 04:00:28;;;;;;;11.27;4.30;;;;;;;9.78;100.00;99420.56;5094481;28;20035;-49
2023/12/23 04:02:54;;;;;;;9.32;4.03;;;;;;;9.44;100.00;99424.41;5094484;28;20016;-49
2023/12/23 04:05:21;;;;;;;9.38;3.85;;;;;;;9.17;100.00;99418.66;5093026;28;20035;-49
2023/12/23 04:07:50;;;;;;;9.27;4.30;;;;;;;9.03;100.00;99421.22;5094367;28;20036;-49
2023/12/23 04:10:16;;;;;;;10.10;4.82;;;;;;;8.95;100.00;99412.44;5092957;28;20030;-49
2023/12/23 04:12:43;;;;;;;13.70;5.80;;;;;;;8.86;100.00;99413.47;5092928;28;20112;-49
2023/12/23 04:15:09;;;;;;;13.70;6.75;;;;;;;8.75;100.00;99421.66;5094215;28;20020;-49
2023/12/23 04:17:36;;;;;;;17.00;8.85;;;;;;;8.84;100.00;99412.00;5092792;28;20028;-49
2023/12/23 04:20:02;;;;;;;11.85;7.07;;;;;;;9.43;100.00;99411.47;5094126;28;20089;-49
2023/12/23 04:22:28;;;;;;;10.23;4.50;;;;;;;9.98;100.00;99410.38;5092559;28;20032;-49
2023/12/23 04:24:53;;;;;;;26.58;19.20;;;;;;;10.35;100.00;99413.97;5094104;28;20516;-49
2023/12/23 04:27:19;;;;;;;13.23;7.60;;;;;;;10.45;100.00;99417.13;5093980;28;20026;-49
2023/12/23 04:29:45;;;;;;;11.63;4.05;;;;;;;10.66;100.00;99407.69;5092626;28;20031;-49
2023/12/23 04:32:10;;;;;;;7.90;4.32;;;;;;;11.12;100.00;99402.97;5093861;28;20107;-49
2023/12/23 04:34:39;;;;;;;10.55;4.90;;;;;;;11.35;100.00;99397.56;5093862;28;20028;-49
2023/12/23 04:37:05;;;;;;;18.80;14.82;;;;;;;11.53;100.00;99389.25;5093743;28;20063;-49
2023/12/23 04:39:30;;;;;;;11.43;5.90;;;;;;;11.71;100.00;99390.59;5093695;28;20132;-49
2023/12/23 04:41:56;;;;;;;9.95;4.40;;;;;;;11.90;100.00;99384.69;5092371;28;20028;-49
2023/12/23 04:44:22;;;;;;;6.55;3.53;;;;;;;11.65;100.00;99378.19;5093636;28;20394;-49
2023/12/23 04:46:49;;;;;;;13.13;2.95;;;;;;;11.14;100.00;99373.91;5092321;28;20024;-49
2023/12/23 04:49:15;;;;;;;7.75;3.05;;;;;;;10.47;100.00;99370.53;5092234;28;20038;-49
2023/12/23 04:51:43;;;;;;;13.90;4.68;;;;;;;9.76;100.00;99375.34;5092235;28;20016;-49
2023/12/23 04:54:12;;;;;;;12.18;4.03;;;;;;;9.35;100.00;99383.53;5091837;28;20031;-49
2023/12/23 04:56:38;;;;;;;12.02;4.80;;;;;;;9.39;100.00;99375.13;5093444;28;20024;-49
2023/12/23 04:59:04;;;;;;;12.90;4.28;;;;;;;9.33;100.00;99380.28;5093280;28;20569;-50
2023/12/23 05:01:29;;;;;;;13.25;3.88;;;;;;;9.83;100.00;99393.81;5092031;28;20031;-49
2023/12/23 05:03:55;;;;;;;10.13;3.75;;;;;;;9.99;100.00;99391.03;5093485;28;20031;-49
2023/12/23 05:06:21;;;;;;;10.98;3.47;;;;;;;9.65;100.00;99402.78;5091878;28;20066;-49
2023/12/23 05:08:47;;;;;;;6.70;3.13;;;;;;;9.25;100.00;99406.53;5093268;28;20122;-49
2023/12/23 05:11:13;;;;;;;11.48;7.13;;;;;;;9.04;100.00;99407.97;5093104;28;20082;-49
2023/12/23 05:13:38;;;;;;;10.43;4.65;;;;;;;8.91;100.00;99403.28;5093065;28;20027;-49
2023/12/23 05:16:05;;;;;;;11.50;5.82;;;;;;;9.24;100.00;99418.00;5091789;28;20490;-49
2023/12/23 05:18:30;;;;;;;11.80;3.88;;;;;;;9.59;100.00;99406.13;5092911;28;20067;-49
2023/12/23 05:20:56;;;;;;;7.20;3.65;;;;;;;9.57;100.00;99398.41;5093268;28;20081;-49
2023/12/23 05:23:21;;;;;;;8.88;3.35;;;;;;;9.36;100.00;99411.38;5092685;28;20043;-49
2023/12/23 05:25:47;;;;;;;7.80;3.80;;;;;;;9.24;100.00;99418.00;5092798;28;20074;-49
2023/12/23 05:28:13;;;;;;;9.95;4.15;;;;;;;9.25;100.00;99425.66;5091477;28;20046;-49
2023/12/23 05:30:38;;;;;;;13.23;7.07;;;;;;;9.66;100.00;99437.66;5092734;28;20031;-49
2023/12/23 05:33:05;;;;;;;12.45;4.60;;;;;;;10.46;100.00;99434.50;5091510;28;20023;-49
2023/12/23 05:35:31;;;;;;;11.48;4.55;;;;;;;11.38;100.00;99430.53;5092620;28;20070;-49
2023/12/23 05:37:56;;;;;;;7.32;3.03;;;;;;;12.09;100.00;99413.97;5092541;28;20055;-49
2023/12/23 05:40:22;;;;;;;8.63;4.00;;;;;;;12.12;100.00;99416.22;5091298;28;20028;-49
2023/12/23 05:42:48;;;;;;;8.82;3.85;;;;;;;11.50;100.00;99415.91;5092618;28;20522;-50
2023/12/23 05:45:14;;;;;;;10.35;4.38;;;;;;;11.08;100.00;99417.50;5091169;28;20493;-49
2023/12/23 05:47:42;;;;;;;9.45;5.00;;;;;;;11.22;100.00;99422.91;5092408;28;20058;-49
2023/12/23 05:50:09;;;;;;;12.73;4.45;;;;;;;11.62;100.00;99420.66;5091077;28;20035;-50
2023/12/23 05:52:35;;;;;;;11.18;4.10;;;;;;;11.49;100.00;99423.97;5092454;28;20039;-49
2023/12/23 05:55:01;;;;;;;14.68;10.48;;;;;;;11.07;100.00;99420.31;5092403;28;20125;-49
2023/12/23 05:57:26;;;;;;;14.77;5.18;;;;;;;10.47;100.00;99420.38;5090870;28;20428;-49
2023/12/23 05:59:52;;;;;;;9.30;4.03;;;;;;;10.06;100.00;99419.97;5092317;28;20024;-49
2023/12/23 06:02:18;;;;;;;10.52;5.85;;;;;;;9.72;100.00;99413.41;5092201;28;20478;-50
2023/12/23 06:04:44;;;;;;;8.10;3.78;;;;;;;9.38;100.00;99419.88;5090936;28;20039;-49
2023/12/23 06:07:10;;;;;;;11.88;5.53;;;;;;;9.16;100.00;99421.50;5090228;28;20061;-49
2023/12/23 06:09:36;;;;;;;14.60;4.20;;;;;;;9.04;100.00;99423.69;5092205;28;20048;-49
2023/12/23 06:12:02;;;;;;;10.90;4.25;;;;;;;8.93;100.00;99421.44;5090838;28;20081;-49
2023/12/23 06:14:28;;;;;;;8.65;4.40;;;;;;;8.86;100.00;99425.72;5092083;28;20036;-49
2023/12/23 06:16:54;;;;;;;13.20;4.53;;;;;;;8.85;100.00;99445.03;5092054;28;20060;-49
2023/12/23 06:19:19;;;;;;;9.77;4.47;;;;;;;8.85;100.00;99448.44;5091960;28;20390;-49
2023/12/23 06:21:47;;;;;;;8.38;3.47;;;;;;;8.85;100.00;99440.59;5090630;28;20035;-49
2023/12/23 06:24:13;;;;;;;8.10;3.53;;;;;;;8.82;100.00;99442.78;5090459;28;20044;-49
2023/12/23 06:26:39;;;;;;;11.63;5.93;;;;;;;8.84;100.00;99439.00;5090544;28;20505;-49
2023/12/23 06:29:04;;;;;;;13.13;8.52;;;;;;;8.83;100.00;99439.97;5091942;28;20028;-49
2023/12/23 06:31:30;;;;;;;11.98;6.03;;;;;;;8.86;100.00;99450.09;5090554;28;20058;-49
2023/12/23 06:33:56;;;;;;;12.40;5.90;;;;;;;8.91;100.00;99444.34;5091875;28;20024;-49
2023/12/23 06:36:21;;;;;;;8.18;4.60;;;;;;;8.69;100.00;99448.53;5092060;28;20043;-49
2023/12/23 06:38:48;;;;;;;11.57;4.63;;;;;;;8.69;100.00;99451.97;5091777;28;20493;-49
2023/12/23 06:41:14;;;;;;;17.02;6.10;;;;;;;8.65;100.00;99455.88;5091740;28;20103;-49
2023/12/23 06:43:39;;;;;;;10.88;5.55;;;;;;;8.54;100.00;99454.47;5090802;28;20039;-49
2023/12/23 06:46:08;;;;;;;23.83;14.93;;;;;;;8.70;100.00;99455.41;5090431;28;20039;-49
2023/12/23 06:48:34;;;;;;;15.38;6.03;;;;;;;8.82;100.00;99459.28;5091713;28;20032;-49
2023/12/23 06:50:59;;;;;;;15.30;5.40;;;;;;;8.93;100.00;99458.91;5091732;28;20046;-49
2023/12/23 06:53:25;;;;;;;13.77;6.97;;;;;;;9.47;100.00;99444.19;5090346;28;20051;-49
2023/12/23 06:55:50;;;;;;;9.18;5.50;;;;;;;9.76;100.00;99446.94;5091679;28;20103;-49
2023/12/23 06:58:16;;;;;;;11.15;6.35;;;;;;;9.72;100.00;99450.91;5091494;28;20024;-49
2023/12/23 07:00:42;;;;;;;14.90;8.32;;;;;;;9.51;100.00;99432.38;5090276;28;20036;-49
2023/12/23 07:03:08;;;;;;;12.88;5.75;;;;;;;9.48;100.00;99438.78;5091586;28;20024;-49
2023/12/23 07:05:34;;;;;;;11.82;6.38;;;;;;;9.48;100.00;99440.59;5090248;28;20030;-49
2023/12/23 07:08:00;;;;;;;10.35;5.93;;;;;;;9.04;100.00;99449.84;5090257;28;20063;-49
2023/12/23 07:10:25;;;;;;;13.35;5.43;;;;;;;8.70;100.00;99443.13;5091515;28;20021;-48
2023/12/23 07:12:51;;;;;;;15.43;5.72;;;;;;;8.46;100.00;99440.59;5091522;28;20089;-48
2023/12/23 07:15:17;;;;;;;13.77;7.78;;;;;;;8.54;100.00;99444.00;5091349;28;20034;-49
2023/12/23 07:17:42;;;;;;;11.23;7.28;;;;;;;8.83;100.00;99445.19;5093420;28;20064;-49
2023/12/23 07:20:09;;;;;;;10.45;5.90;;;;;;;8.96;100.00;99442.84;5093939;28;20028;-48
2023/12/23 07:22:35;;;;;;;11.20;5.50;;;;;;;8.97;100.00;99448.91;5093707;28;20142;-49
2023/12/23 07:25:01;;;;;;;10.25;5.20;;;;;;;9.02;100.00;99457.06;5095300;28;20537;-49
2023/12/23 07:27:27;;;;;;;13.57;5.13;;;;;;;9.50;100.00;99456.97;5093909;28;20028;-49
2023/12/23 07:29:53;;;;;;;13.15;4.93;;;;;;;10.06;100.00;99460.13;5093802;28;20096;-49
2023/12/23 07:32:18;;;;;;;15.52;6.10;;;;;;;10.48;100.00;99465.81;5095050;28;20048;-49
2023/12/23 07:34:45;;;;;;;9.15;5.13;;;;;;;10.89;100.00;99462.75;5095002;28;20026;-49
2023/12/23 07:37:10;;;;;;;12.63;7.75;;;;;;;11.09;100.00;99466.41;5094905;28;20379;-49
2023/12/23 07:39:36;;;;;;;14.50;6.40;;;;;;;11.35;100.00;99460.66;5093642;28;20028;-49
2023/12/23 07:42:02;;;;;;;15.32;5.60;;;;;;;11.76;100.00;99461.84;5094859;28;20447;-49
2023/12/23 07:44:27;;;;;;;19.08;5.03;;;;;;;12.10;100.00;99473.50;5094859;28;20549;-49
2023/12/23 07:46:53;;;;;;;11.02;6.63;;;;;;;11.90;100.00;99468.06;5093471;28;20020;-50
2023/12/23 07:49:19;;;;;;;10.20;6.35;;;;;;;11.60;100.00;99468.16;5094779;28;20405;-49
2023/12/23 07:51:45;;;;;;;18.08;7.07;;;;;;;11.51;100.00;99475.38;5094710;28;20022;-49
2023/12/23 07:54:11;;;;;;;11.05;5.22;;;;;;;11.36;100.00;99475.41;5093349;28;20026;-49
2023/12/23 07:56:37;;;;;;;9.40;5.68;;;;;;;11.06;100.00;99476.47;5093400;28;20020;-50
2023/12/23 07:59:02;;;;;;;16.55;6.85;;;;;;;10.99;100.00;99479.84;5094503;28;20486;-49
2023/12/23 08:01:28;;;;;;;14.85;6.00;;;;;;;11.25;100.00;99483.78;5094490;28;20016;-49
2023/12/23 08:03:55;;;;;;;13.77;4.20;;;;;;;11.57;100.00;99479.06;5093098;28;20063;-49
2023/12/23 08:06:23;;;;;;;12.60;4.82;;;;;;;11.89;100.00;99482.22;5094350;28;20103;-49
2023/12/23 08:08:48;;;;;;;9.82;4.88;;;;;;;12.15;100.00;99486.88;5093069;28;20036;-49
2023/12/23 08:11:14;;;;;;;11.45;5.32;;;;;;;12.31;100.00;99497.13;5094301;28;20073;-49
2023/12/23 08:13:41;;;;;;;14.77;5.75;;;;;;;12.52;100.00;99501.53;5094222;28;20432;-49
2023/12/23 08:16:07;;;;;;;19.05;17.02;;;;;;;12.68;100.00;99502.25;5094151;28;20032;-49
2023/12/23 08:18:33;;;;;;;13.00;6.57;;;;;;;12.92;100.00;99504.41;5094109;28;20020;-49
2023/12/23 08:20:59;;;;;;;11.23;6.10;;;;;;;12.78;100.00;99500.06;5094133;28;20031;-49
2023/12/23 08:23:25;;;;;;;10.95;5.72;;;;;;;12.46;100.00;99510.19;5092663;28;20059;-49
2023/12/23 08:25:50;;;;;;;10.95;6.93;;;;;;;12.50;100.00;99508.81;5092734;28;20058;-49
2023/12/23 08:28:16;;;;;;;9.32;5.82;;;;;;;12.71;100.00;99510.53;5093671;28;20028;-49
2023/12/23 08:30:42;;;;;;;11.95;5.55;;;;;;;12.94;100.00;99507.66;5092397;28;20032;-49
2023/12/23 08:33:08;;;;;;;12.52;8.88;;;;;;;13.22;100.00;99516.47;5093941;28;20024;-49
2023/12/23 08:35:33;;;;;;;11.07;7.38;;;;;;;13.17;100.00;99514.44;5093880;28;20482;-49
2023/12/23 08:37:59;;;;;;;13.95;6.15;;;;;;;12.89;100.00;99523.22;5092469;28;20043;-49
2023/12/23 08:40:25;;;;;;;12.35;7.63;;;;;;;12.91;100.00;99510.66;5092517;28;20448;-48
2023/12/23 08:42:51;;;;;;;11.27;5.70;;;;;;;13.09;100.00;99511.97;5092414;28;20024;-49
2023/12/23 08:45:17;;;;;;;10.98;6.47;;;;;;;13.38;100.00;99518.78;5093691;28;20027;-49
2023/12/23 08:47:43;;;;;;;9.75;6.10;;;;;;;13.44;100.00;99512.75;5092333;28;20120;-49
2023/12/23 08:50:09;;;;;;;11.70;4.82;;;;;;;13.48;100.00;99521.06;5092300;28;20058;-49
2023/12/23 08:52:35;;;;;;;9.75;5.13;;;;;;;13.20;100.00;99514.06;5093579;28;20020;-49
2023/12/23 08:55:02;;;;;;;9.07;5.15;;;;;;;12.99;100.00;99518.41;5093462;28;20417;-49
2023/12/23 08:57:27;;;;;;;22.48;19.45;;;;;;;12.83;100.00;99529.25;5093270;28;20032;-49
2023/12/23 08:59:53;;;;;;;14.13;8.13;;;;;;;12.66;100.00;99530.59;5092214;28;20027;-49
2023/12/23 09:02:19;;;;;;;13.02;6.40;;;;;;;12.45;100.00;99531.44;5093274;28;20032;-49
2023/12/23 09:04:44;;;;;;;8.35;5.43;;;;;;;12.08;100.00;99539.44;5093356;28;20107;-49
2023/12/23 09:07:10;;;;;;;9.13;6.28;;;;;;;12.08;100.00;99544.72;5093479;28;20032;-49
2023/12/23 09:09:36;;;;;;;11.93;6.07;;;;;;;12.39;100.00;99547.00;5091860;28;20066;-49
2023/12/23 09:12:02;;;;;;;11.23;6.28;;;;;;;12.85;100.00;99540.41;5091811;28;20028;-49
2023/12/23 09:14:29;;;;;;;11.43;7.88;;;;;;;12.99;100.00;99536.84;5093124;28;20039;-49
2023/12/23 09:16:55;;;;;;;11.65;6.07;;;;;;;12.99;100.00;99528.94;5093031;28;20103;-49
2023/12/23 09:19:20;;;;;;;12.13;6.65;;;;;;;12.78;100.00;99529.03;5092986;28;20375;-49
2023/12/23 09:21:46;;;;;;;12.32;6.50;;;;;;;12.56;100.00;99523.03;5091651;28;20028;-49
2023/12/23 09:24:12;;;;;;;16.92;6.90;;;;;;;12.46;100.00;99531.25;5092706;28;20097;-49
2023/12/23 09:26:37;;;;;;;11.98;5.40;;;;;;;12.62;100.00;99534.63;5091578;28;20030;-49
2023/12/23 09:29:03;;;;;;;19.70;14.38;;;;;;;13.24;100.00;99533.75;5092844;28;20016;-49
2023/12/23 09:31:29;;;;;;;12.07;5.55;;;;;;;14.72;100.00;99523.19;5092802;28;20394;-49
2023/12/23 09:33:55;;;;;;;14.25;8.82;;;;;;;16.07;100.00;99526.84;5091494;28;20030;-49
2023/12/23 09:36:20;;;;;;;21.15;13.13;;;;;;;17.12;100.00;99526.06;5091322;28;20486;-47
2023/12/23 09:38:46;;;;;;;11.82;6.18;;;;;;;17.37;100.00;99523.31;5091287;28;20020;-47
2023/12/23 09:41:12;;;;;;;10.18;4.90;;;;;;;17.06;100.00;99530.41;5091595;28;20047;-47
2023/12/23 09:43:38;;;;;;;8.15;4.80;;;;;;;16.18;100.00;99528.81;5074419;28;20051;-47
2023/12/23 09:46:06;;;;;;;7.25;4.93;;;;;;;15.56;100.00;99534.66;5092430;28;20016;-47
2023/12/23 09:48:32;;;;;;;9.32;5.25;;;;;;;15.45;100.00;99545.09;5091319;28;20031;-47
2023/12/23 09:50:57;;;;;;;10.52;5.18;;;;;;;15.77;100.00;99549.47;5092439;28;20016;-47
2023/12/23 09:53:27;;;;;;;9.32;4.85;;;;;;;16.38;100.00;99547.19;5091073;28;20024;-47
2023/12/23 09:55:52;;;;;;;19.25;15.70;;;;;;;17.03;100.00;99544.13;5074134;28;20024;-47
2023/12/23 09:58:18;;;;;;;11.75;5.90;;;;;;;17.10;99.72;99541.38;5092111;28;20066;-47
2023/12/23 10:00:47;;;;;;;9.30;4.93;;;;;;;17.57;100.00;99539.78;5092254;28;20401;-47
2023/12/23 10:03:13;;;;;;;15.45;13.18;;;;;;;18.56;98.46;99546.47;5090940;28;20020;-47
2023/12/23 10:05:42;;;;;;;9.80;5.28;;;;;;;19.35;94.23;99541.50;5090895;28;20077;-47
2023/12/23 10:08:08;;;;;;;8.98;4.47;;;;;;;20.03;88.97;99540.91;5092228;28;20537;-47
2023/12/23 10:10:34;;;;;;;7.88;4.45;;;;;;;20.30;87.57;99530.38;5074327;28;20031;-48
2023/12/23 10:13:00;;;;;;;9.95;4.10;;;;;;;19.50;84.29;99533.03;5092086;28;20020;-47
2023/12/23 10:15:25;;;;;;;8.35;4.82;;;;;;;18.34;83.03;99532.94;5092318;28;20099;-47
2023/12/23 10:17:53;;;;;;;10.48;4.80;;;;;;;18.53;85.67;99530.97;5092010;28;20016;-47
2023/12/23 10:20:19;;;;;;;4.60;3.35;;;;;;;19.72;84.23;99517.19;5073955;28;20025;-47
2023/12/23 10:22:45;;;;;;;7.88;3.45;;;;;;;20.45;78.88;99516.50;5090508;28;20540;-47
2023/12/23 10:25:12;;;;;;;6.50;3.67;;;;;;;20.92;79.86;99516.88;5091975;28;20509;-47
2023/12/23 10:27:42;;;;;;;17.38;11.68;;;;;;;21.45;80.57;99516.44;5092020;28;20024;-47
2023/12/23 10:30:12;;;;;;;6.93;3.97;;;;;;;22.03;75.44;99512.16;5090740;28;20079;-47
2023/12/23 10:32:39;;;;;;;14.32;7.18;;;;;;;22.36;74.40;99507.63;5091924;28;20020;-47
2023/12/23 10:35:14;;;;;;;6.38;2.05;;;;;;;22.79;78.32;99504.91;5091769;28;20032;-48
2023/12/23 10:37:41;;;;;;;6.80;2.22;;;;;;;23.28;72.07;99507.25;5091823;28;20031;-48
2023/12/23 10:40:17;;;;;;;1.83;0.52;;;;;;;22.79;66.27;99499.56;5090493;28;20497;-47
2023/12/23 10:42:45;;;;;;;3.20;1.65;;;;;;;22.23;69.10;99503.47;5092065;28;20028;-47
2023/12/23 10:45:12;;;;;;;2.17;0.93;;;;;;;21.07;68.39;99505.59;5091778;28;20109;-47
2023/12/23 10:47:38;;;;;;;2.78;1.10;;;;;;;20.07;74.13;99508.19;5090461;28;20035;-47
2023/12/23 10:50:05;;;;;;;2.97;1.42;;;;;;;19.59;76.97;99504.16;5090554;28;20051;-47
2023/12/23 10:52:32;;;;;;;2.88;1.10;;;;;;;19.29;75.64;99502.53;5092260;28;20039;-47
2023/12/23 10:55:08;;;;;;;2.15;1.30;;;;;;;18.94;77.72;99495.47;5094536;28;20038;-47
2023/12/23 10:57:36;;;;;;;2.38;1.10;;;;;;;18.68;77.24;99491.44;5095795;28;20020;-47
2023/12/23 11:00:05;;;;;;;3.05;1.38;;;;;;;18.75;76.93;99494.81;5095640;28;20447;-47
2023/12/23 11:02:34;;;;;;;3.08;1.00;;;;;;;18.60;78.10;99493.66;5094484;28;20020;-48
2023/12/23 11:05:05;;;;;;;2.50;1.08;;;;;;;18.38;75.07;99496.91;5094425;28;20016;-47
2023/12/23 11:07:36;;;;;;;7.32;5.38;;;;;;;18.19;75.73;99490.91;5094332;28;20024;-47
2023/12/23 11:10:04;;;;;;;2.00;1.77;;;;;;;18.47;74.44;99498.19;5095599;28;20493;-47
2023/12/23 11:12:30;;;;;;;37.97;3.70;;;;;;;18.37;71.45;99487.28;5077310;28;20115;-47
2023/12/23 11:14:58;;;;;;;15.80;1.60;;;;;;;18.57;71.92;99478.97;5094203;28;20020;-47
2023/12/23 11:17:25;;;;;;;13.00;1.60;;;;;;;19.30;68.63;99474.88;5093962;28;20472;-47